sensor_id;sensor_type;location;lat;lon;timestamp;temperature;humidity
53880;DHT22;39791;53.184;5.486;2023-09-07T00:00:48;22.90;99.90
53880;DHT22;39791;53.184;5.486;2023-09-07T00:03:15;22.80;99.90
53880;DHT22;39791;53.184;5.486;2023-09-07T00:05:41;22.70;99.90
53880;DHT22;39791;53.184;5.486;2023-09-07T00:08:07;22.90;71.20
53880;DHT22;39791;53.184;5.486;2023-09-07T00:10:33;22.70;44.00
53880;DHT22;39791;53.184;5.486;2023-09-07T00:13:02;22.70;43.40
53880;DHT22;39791;53.184;5.486;2023-09-07T00:15:28;22.70;60.00
53880;DHT22;39791;53.184;5.486;2023-09-07T00:17:55;22.70;64.50
53880;DHT22;39791;53.184;5.486;2023-09-07T00:20:21;22.50;79.50
53880;DHT22;39791;53.184;5.486;2023-09-07T00:22:47;22.50;99.90
53880;DHT22;39791;53.184;5.486;2023-09-07T00:25:13;22.50;99.90
53880;DHT22;39791;53.184;5.486;2023-09-07T00:27:39;22.70;99.90
53880;DHT22;39791;53.184;5.486;2023-09-07T00:30:05;22.60;99.90
53880;DHT22;39791;53.184;5.486;2023-09-07T00:32:32;22.70;99.90
53880;DHT22;39791;53.184;5.486;2023-09-07T00:34:58;22.60;90.00
53880;DHT22;39791;53.184;5.486;2023-09-07T00:37:24;22.70;40.60
53880;DHT22;39791;53.184;5.486;2023-09-07T00:39:50;22.50;9.90
53880;DHT22;39791;53.184;5.486;2023-09-07T00:42:15;22.40;18.80
53880;DHT22;39791;53.184;5.486;2023-09-07T00:44:41;22.30;80.70
53880;DHT22;39791;53.184;5.486;2023-09-07T00:47:07;22.20;99.90
53880;DHT22;39791;53.184;5.486;2023-09-07T00:49:32;22.10;99.90
53880;DHT22;39791;53.184;5.486;2023-09-07T00:51:58;22.10;99.90
53880;DHT22;39791;53.184;5.486;2023-09-07T00:54:23;22.50;1.00
53880;DHT22;39791;53.184;5.486;2023-09-07T00:56:49;22.10;1.00
53880;DHT22;39791;53.184;5.486;2023-09-07T00:59:15;22.10;1.00
53880;DHT22;39791;53.184;5.486;2023-09-07T01:01:40;22.00;74.20
53880;DHT22;39791;53.184;5.486;2023-09-07T01:04:08;22.10;99.90
53880;DHT22;39791;53.184;5.486;2023-09-07T01:06:39;21.90;99.90
53880;DHT22;39791;53.184;5.486;2023-09-07T01:09:10;22.00;99.90
53880;DHT22;39791;53.184;5.486;2023-09-07T01:11:38;21.80;99.90
53880;DHT22;39791;53.184;5.486;2023-09-07T01:14:04;21.70;1.00
53880;DHT22;39791;53.184;5.486;2023-09-07T01:16:31;21.80;1.00
53880;DHT22;39791;53.184;5.486;2023-09-07T01:19:00;21.70;1.00
53880;DHT22;39791;53.184;5.486;2023-09-07T01:21:26;22.00;90.50
53880;DHT22;39791;53.184;5.486;2023-09-07T01:23:54;21.80;99.90
53880;DHT22;39791;53.184;5.486;2023-09-07T01:26:20;21.80;99.90
53880;DHT22;39791;53.184;5.486;2023-09-07T01:28:46;21.90;99.90
53880;DHT22;39791;53.184;5.486;2023-09-07T01:31:11;21.90;99.90
53880;DHT22;39791;53.184;5.486;2023-09-07T01:33:37;21.80;99.90
53880;DHT22;39791;53.184;5.486;2023-09-07T01:36:03;21.70;1.00
53880;DHT22;39791;53.184;5.486;2023-09-07T01:38:28;21.70;1.00
53880;DHT22;39791;53.184;5.486;2023-09-07T01:40:55;21.60;1.00
53880;DHT22;39791;53.184;5.486;2023-09-07T01:43:20;21.70;37.60
53880;DHT22;39791;53.184;5.486;2023-09-07T01:45:46;21.50;93.10
53880;DHT22;39791;53.184;5.486;2023-09-07T01:48:13;21.70;99.90
53880;DHT22;39791;53.184;5.486;2023-09-07T01:50:39;21.60;99.90
53880;DHT22;39791;53.184;5.486;2023-09-07T01:53:04;21.80;99.90
53880;DHT22;39791;53.184;5.486;2023-09-07T01:55:33;21.90;99.90
53880;DHT22;39791;53.184;5.486;2023-09-07T01:57:58;21.80;99.90
53880;DHT22;39791;53.184;5.486;2023-09-07T02:00:24;21.70;99.90
53880;DHT22;39791;53.184;5.486;2023-09-07T02:02:50;21.90;99.90
53880;DHT22;39791;53.184;5.486;2023-09-07T02:05:15;21.80;99.90
53880;DHT22;39791;53.184;5.486;2023-09-07T02:07:42;21.80;99.90
53880;DHT22;39791;53.184;5.486;2023-09-07T02:10:08;21.80;47.60
53880;DHT22;39791;53.184;5.486;2023-09-07T02:12:33;21.80;1.00
53880;DHT22;39791;53.184;5.486;2023-09-07T02:15:02;22.10;1.00
53880;DHT22;39791;53.184;5.486;2023-09-07T02:17:28;21.70;1.00
53880;DHT22;39791;53.184;5.486;2023-09-07T02:19:53;21.80;1.00
53880;DHT22;39791;53.184;5.486;2023-09-07T02:22:19;21.70;1.00
53880;DHT22;39791;53.184;5.486;2023-09-07T02:24:44;21.70;1.00
53880;DHT22;39791;53.184;5.486;2023-09-07T02:27:10;21.70;1.00
53880;DHT22;39791;53.184;5.486;2023-09-07T02:29:36;21.70;99.90
53880;DHT22;39791;53.184;5.486;2023-09-07T02:32:02;21.80;99.90
53880;DHT22;39791;53.184;5.486;2023-09-07T02:34:28;21.60;99.90
53880;DHT22;39791;53.184;5.486;2023-09-07T02:36:55;21.70;99.90
53880;DHT22;39791;53.184;5.486;2023-09-07T02:39:22;21.50;99.90
53880;DHT22;39791;53.184;5.486;2023-09-07T02:41:51;21.60;99.90
53880;DHT22;39791;53.184;5.486;2023-09-07T02:44:17;21.50;99.90
53880;DHT22;39791;53.184;5.486;2023-09-07T02:46:42;21.30;99.90
53880;DHT22;39791;53.184;5.486;2023-09-07T02:49:08;21.50;99.90
53880;DHT22;39791;53.184;5.486;2023-09-07T02:51:34;21.40;99.90
53880;DHT22;39791;53.184;5.486;2023-09-07T02:54:02;21.30;99.90
53880;DHT22;39791;53.184;5.486;2023-09-07T02:56:28;21.30;99.90
53880;DHT22;39791;53.184;5.486;2023-09-07T02:58:53;21.30;99.90
53880;DHT22;39791;53.184;5.486;2023-09-07T03:01:19;21.30;1.00
53880;DHT22;39791;53.184;5.486;2023-09-07T03:03:46;21.20;1.00
53880;DHT22;39791;53.184;5.486;2023-09-07T03:06:13;21.20;1.00
53880;DHT22;39791;53.184;5.486;2023-09-07T03:08:39;21.30;1.00
53880;DHT22;39791;53.184;5.486;2023-09-07T03:11:07;21.30;1.00
53880;DHT22;39791;53.184;5.486;2023-09-07T03:13:32;21.50;1.00
53880;DHT22;39791;53.184;5.486;2023-09-07T03:15:59;21.50;1.00
53880;DHT22;39791;53.184;5.486;2023-09-07T03:18:25;21.40;99.90
53880;DHT22;39791;53.184;5.486;2023-09-07T03:20:52;21.40;99.90
53880;DHT22;39791;53.184;5.486;2023-09-07T03:23:18;21.40;99.90
53880;DHT22;39791;53.184;5.486;2023-09-07T03:25:44;21.40;99.90
53880;DHT22;39791;53.184;5.486;2023-09-07T03:28:09;21.40;99.90
53880;DHT22;39791;53.184;5.486;2023-09-07T03:30:35;21.40;99.90
53880;DHT22;39791;53.184;5.486;2023-09-07T03:33:00;21.40;99.90
53880;DHT22;39791;53.184;5.486;2023-09-07T03:35:26;21.40;99.90
53880;DHT22;39791;53.184;5.486;2023-09-07T03:37:52;21.50;99.90
53880;DHT22;39791;53.184;5.486;2023-09-07T03:40:18;21.40;99.90
53880;DHT22;39791;53.184;5.486;2023-09-07T03:42:43;21.30;99.90
53880;DHT22;39791;53.184;5.486;2023-09-07T03:45:11;21.30;99.90
53880;DHT22;39791;53.184;5.486;2023-09-07T03:47:37;21.20;99.90
53880;DHT22;39791;53.184;5.486;2023-09-07T03:50:03;21.20;99.90
53880;DHT22;39791;53.184;5.486;2023-09-07T03:52:28;21.10;99.90
53880;DHT22;39791;53.184;5.486;2023-09-07T03:54:55;21.10;1.00
53880;DHT22;39791;53.184;5.486;2023-09-07T03:57:24;21.00;1.00
53880;DHT22;39791;53.184;5.486;2023-09-07T03:59:50;20.90;1.00
53880;DHT22;39791;53.184;5.486;2023-09-07T04:02:15;21.00;99.30
53880;DHT22;39791;53.184;5.486;2023-09-07T04:04:47;20.80;99.90
53880;DHT22;39791;53.184;5.486;2023-09-07T04:07:13;20.90;99.90
53880;DHT22;39791;53.184;5.486;2023-09-07T04:09:39;20.70;99.90
53880;DHT22;39791;53.184;5.486;2023-09-07T04:12:05;20.80;1.00
53880;DHT22;39791;53.184;5.486;2023-09-07T04:14:31;20.80;1.00
53880;DHT22;39791;53.184;5.486;2023-09-07T04:16:58;20.80;81.80
53880;DHT22;39791;53.184;5.486;2023-09-07T04:19:23;20.80;99.90
53880;DHT22;39791;53.184;5.486;2023-09-07T04:21:49;20.70;99.90
53880;DHT22;39791;53.184;5.486;2023-09-07T04:24:14;20.50;99.90
53880;DHT22;39791;53.184;5.486;2023-09-07T04:26:40;20.50;1.00
53880;DHT22;39791;53.184;5.486;2023-09-07T04:29:07;20.40;1.00
53880;DHT22;39791;53.184;5.486;2023-09-07T04:31:33;20.40;57.20
53880;DHT22;39791;53.184;5.486;2023-09-07T04:33:58;20.40;99.90
53880;DHT22;39791;53.184;5.486;2023-09-07T04:36:24;20.20;99.90
53880;DHT22;39791;53.184;5.486;2023-09-07T04:38:49;20.20;99.90
53880;DHT22;39791;53.184;5.486;2023-09-07T04:41:15;20.20;1.00
53880;DHT22;39791;53.184;5.486;2023-09-07T04:43:42;20.20;95.40
53880;DHT22;39791;53.184;5.486;2023-09-07T04:46:11;20.00;99.90
53880;DHT22;39791;53.184;5.486;2023-09-07T04:48:37;20.10;99.90
53880;DHT22;39791;53.184;5.486;2023-09-07T04:51:04;19.90;99.90
53880;DHT22;39791;53.184;5.486;2023-09-07T04:53:33;20.00;1.00
53880;DHT22;39791;53.184;5.486;2023-09-07T04:56:00;20.00;1.00
53880;DHT22;39791;53.184;5.486;2023-09-07T04:58:27;19.80;94.50
53880;DHT22;39791;53.184;5.486;2023-09-07T05:00:52;20.00;99.90
53880;DHT22;39791;53.184;5.486;2023-09-07T05:03:18;19.90;99.90
53880;DHT22;39791;53.184;5.486;2023-09-07T05:05:44;19.90;99.90
53880;DHT22;39791;53.184;5.486;2023-09-07T05:08:10;19.70;99.90
53880;DHT22;39791;53.184;5.486;2023-09-07T05:10:36;19.80;99.90
53880;DHT22;39791;53.184;5.486;2023-09-07T05:13:02;19.80;1.00
53880;DHT22;39791;53.184;5.486;2023-09-07T05:15:28;19.80;1.00
53880;DHT22;39791;53.184;5.486;2023-09-07T05:17:54;19.80;1.00
53880;DHT22;39791;53.184;5.486;2023-09-07T05:20:20;19.60;77.10
53880;DHT22;39791;53.184;5.486;2023-09-07T05:22:45;19.80;99.90
53880;DHT22;39791;53.184;5.486;2023-09-07T05:25:11;19.80;99.90
53880;DHT22;39791;53.184;5.486;2023-09-07T05:27:37;19.80;99.90
53880;DHT22;39791;53.184;5.486;2023-09-07T05:30:03;19.90;99.90
53880;DHT22;39791;53.184;5.486;2023-09-07T05:32:29;19.70;99.90
53880;DHT22;39791;53.184;5.486;2023-09-07T05:34:55;20.10;99.90
53880;DHT22;39791;53.184;5.486;2023-09-07T05:37:20;19.70;99.90
53880;DHT22;39791;53.184;5.486;2023-09-07T05:39:46;19.90;99.90
53880;DHT22;39791;53.184;5.486;2023-09-07T05:42:11;20.10;99.90
53880;DHT22;39791;53.184;5.486;2023-09-07T05:44:38;20.00;99.90
53880;DHT22;39791;53.184;5.486;2023-09-07T05:47:04;19.90;99.90
53880;DHT22;39791;53.184;5.486;2023-09-07T05:49:30;20.20;99.90
53880;DHT22;39791;53.184;5.486;2023-09-07T05:51:56;20.10;99.90
53880;DHT22;39791;53.184;5.486;2023-09-07T05:54:21;20.10;99.90
53880;DHT22;39791;53.184;5.486;2023-09-07T05:56:47;20.30;99.90
53880;DHT22;39791;53.184;5.486;2023-09-07T05:59:13;20.20;99.90
53880;DHT22;39791;53.184;5.486;2023-09-07T06:01:39;20.10;99.90
53880;DHT22;39791;53.184;5.486;2023-09-07T06:04:05;20.40;99.90
53880;DHT22;39791;53.184;5.486;2023-09-07T06:06:31;20.30;99.90
53880;DHT22;39791;53.184;5.486;2023-09-07T06:08:57;20.10;99.90
53880;DHT22;39791;53.184;5.486;2023-09-07T06:11:24;20.40;99.90
53880;DHT22;39791;53.184;5.486;2023-09-07T06:13:50;20.30;99.90
53880;DHT22;39791;53.184;5.486;2023-09-07T06:16:16;20.50;99.90
53880;DHT22;39791;53.184;5.486;2023-09-07T06:18:41;20.50;99.90
53880;DHT22;39791;53.184;5.486;2023-09-07T06:21:07;20.60;99.90
53880;DHT22;39791;53.184;5.486;2023-09-07T06:23:32;20.50;99.90
53880;DHT22;39791;53.184;5.486;2023-09-07T06:25:59;20.70;99.90
53880;DHT22;39791;53.184;5.486;2023-09-07T06:28:25;20.80;99.90
53880;DHT22;39791;53.184;5.486;2023-09-07T06:30:50;20.90;99.90
53880;DHT22;39791;53.184;5.486;2023-09-07T06:33:16;20.90;96.70
53880;DHT22;39791;53.184;5.486;2023-09-07T06:35:42;21.40;1.00
53880;DHT22;39791;53.184;5.486;2023-09-07T06:38:08;21.10;99.90
53880;DHT22;39791;53.184;5.486;2023-09-07T06:40:33;21.30;99.90
53880;DHT22;39791;53.184;5.486;2023-09-07T06:42:59;21.30;60.50
53880;DHT22;39791;53.184;5.486;2023-09-07T06:45:25;21.40;1.00
53880;DHT22;39791;53.184;5.486;2023-09-07T06:47:51;21.60;99.90
53880;DHT22;39791;53.184;5.486;2023-09-07T06:50:16;21.50;24.70
53880;DHT22;39791;53.184;5.486;2023-09-07T06:52:42;21.60;1.00
53880;DHT22;39791;53.184;5.486;2023-09-07T06:55:08;21.80;99.90
53880;DHT22;39791;53.184;5.486;2023-09-07T06:57:33;21.90;25.00
53880;DHT22;39791;53.184;5.486;2023-09-07T06:59:59;22.00;1.00
53880;DHT22;39791;53.184;5.486;2023-09-07T07:02:25;22.10;99.90
53880;DHT22;39791;53.184;5.486;2023-09-07T07:04:50;22.10;99.90
53880;DHT22;39791;53.184;5.486;2023-09-07T07:07:17;22.20;99.90
53880;DHT22;39791;53.184;5.486;2023-09-07T07:09:42;22.20;1.00
53880;DHT22;39791;53.184;5.486;2023-09-07T07:12:08;22.30;1.00
53880;DHT22;39791;53.184;5.486;2023-09-07T07:14:34;22.40;99.90
53880;DHT22;39791;53.184;5.486;2023-09-07T07:16:59;22.40;99.90
53880;DHT22;39791;53.184;5.486;2023-09-07T07:19:27;22.60;1.00
53880;DHT22;39791;53.184;5.486;2023-09-07T07:21:52;22.70;99.90
53880;DHT22;39791;53.184;5.486;2023-09-07T07:24:19;22.90;83.30
53880;DHT22;39791;53.184;5.486;2023-09-07T07:26:45;22.90;1.00
53880;DHT22;39791;53.184;5.486;2023-09-07T07:29:11;23.00;99.90
53880;DHT22;39791;53.184;5.486;2023-09-07T07:31:38;23.10;99.90
53880;DHT22;39791;53.184;5.486;2023-09-07T07:34:03;23.30;75.90
53880;DHT22;39791;53.184;5.486;2023-09-07T07:36:29;23.40;1.00
53880;DHT22;39791;53.184;5.486;2023-09-07T07:38:55;23.40;1.00
53880;DHT22;39791;53.184;5.486;2023-09-07T07:41:21;23.50;99.90
53880;DHT22;39791;53.184;5.486;2023-09-07T07:43:46;23.50;79.90
53880;DHT22;39791;53.184;5.486;2023-09-07T07:46:12;23.70;1.00
53880;DHT22;39791;53.184;5.486;2023-09-07T07:48:41;24.00;99.90
53880;DHT22;39791;53.184;5.486;2023-09-07T07:51:06;23.90;99.90
53880;DHT22;39791;53.184;5.486;2023-09-07T07:53:32;24.40;99.90
53880;DHT22;39791;53.184;5.486;2023-09-07T07:55:58;24.80;98.90
53880;DHT22;39791;53.184;5.486;2023-09-07T07:58:23;25.20;1.00
53880;DHT22;39791;53.184;5.486;2023-09-07T08:00:49;25.40;99.90
53880;DHT22;39791;53.184;5.486;2023-09-07T08:03:15;25.70;93.70
53880;DHT22;39791;53.184;5.486;2023-09-07T08:05:41;26.00;1.00
53880;DHT22;39791;53.184;5.486;2023-09-07T08:08:06;26.30;1.00
53880;DHT22;39791;53.184;5.486;2023-09-07T08:10:36;26.60;99.90
53880;DHT22;39791;53.184;5.486;2023-09-07T08:13:03;27.00;99.90
53880;DHT22;39791;53.184;5.486;2023-09-07T08:15:31;27.00;99.90
53880;DHT22;39791;53.184;5.486;2023-09-07T08:17:56;27.00;26.40
53880;DHT22;39791;53.184;5.486;2023-09-07T08:20:22;27.20;22.50
53880;DHT22;39791;53.184;5.486;2023-09-07T08:22:48;27.30;1.00
53880;DHT22;39791;53.184;5.486;2023-09-07T08:25:14;27.30;1.00
53880;DHT22;39791;53.184;5.486;2023-09-07T08:27:41;27.40;1.00
53880;DHT22;39791;53.184;5.486;2023-09-07T08:30:16;27.60;1.00
53880;DHT22;39791;53.184;5.486;2023-09-07T08:32:43;27.70;1.00
53880;DHT22;39791;53.184;5.486;2023-09-07T08:35:10;27.80;1.00
53880;DHT22;39791;53.184;5.486;2023-09-07T08:37:39;28.00;99.90
53880;DHT22;39791;53.184;5.486;2023-09-07T08:40:05;28.10;99.90
53880;DHT22;39791;53.184;5.486;2023-09-07T08:42:36;28.20;99.90
53880;DHT22;39791;53.184;5.486;2023-09-07T08:45:03;28.30;99.90
53880;DHT22;39791;53.184;5.486;2023-09-07T08:47:36;28.40;99.90
53880;DHT22;39791;53.184;5.486;2023-09-07T08:50:02;28.50;99.90
53880;DHT22;39791;53.184;5.486;2023-09-07T08:52:28;28.50;99.90
53880;DHT22;39791;53.184;5.486;2023-09-07T08:54:56;28.60;99.90
53880;DHT22;39791;53.184;5.486;2023-09-07T08:57:24;28.70;99.90
53880;DHT22;39791;53.184;5.486;2023-09-07T08:59:50;28.70;99.90
53880;DHT22;39791;53.184;5.486;2023-09-07T09:02:16;28.90;99.90
53880;DHT22;39791;53.184;5.486;2023-09-07T09:04:42;29.00;99.90
53880;DHT22;39791;53.184;5.486;2023-09-07T09:07:07;29.20;99.90
53880;DHT22;39791;53.184;5.486;2023-09-07T09:09:33;29.30;99.90
53880;DHT22;39791;53.184;5.486;2023-09-07T09:12:09;29.50;99.90
53880;DHT22;39791;53.184;5.486;2023-09-07T09:14:35;29.50;99.90
53880;DHT22;39791;53.184;5.486;2023-09-07T09:17:01;29.60;99.90
53880;DHT22;39791;53.184;5.486;2023-09-07T09:19:33;29.50;99.90
53880;DHT22;39791;53.184;5.486;2023-09-07T09:22:00;29.80;99.90
53880;DHT22;39791;53.184;5.486;2023-09-07T09:24:26;29.90;99.90
53880;DHT22;39791;53.184;5.486;2023-09-07T09:26:52;29.90;99.90
53880;DHT22;39791;53.184;5.486;2023-09-07T09:29:22;29.80;99.90
53880;DHT22;39791;53.184;5.486;2023-09-07T09:31:48;30.00;99.90
53880;DHT22;39791;53.184;5.486;2023-09-07T09:34:14;30.00;99.90
53880;DHT22;39791;53.184;5.486;2023-09-07T09:36:42;29.90;99.90
53880;DHT22;39791;53.184;5.486;2023-09-07T09:39:07;30.20;99.90
53880;DHT22;39791;53.184;5.486;2023-09-07T09:41:35;30.20;99.90
53880;DHT22;39791;53.184;5.486;2023-09-07T09:44:02;30.10;99.90
53880;DHT22;39791;53.184;5.486;2023-09-07T09:46:29;30.00;95.60
53880;DHT22;39791;53.184;5.486;2023-09-07T09:48:57;29.90;97.40
53880;DHT22;39791;53.184;5.486;2023-09-07T09:51:24;29.90;92.20
53880;DHT22;39791;53.184;5.486;2023-09-07T09:53:50;29.90;95.20
53880;DHT22;39791;53.184;5.486;2023-09-07T09:56:16;29.90;89.20
53880;DHT22;39791;53.184;5.486;2023-09-07T09:58:42;29.80;84.30
53880;DHT22;39791;53.184;5.486;2023-09-07T10:01:09;29.70;88.90
53880;DHT22;39791;53.184;5.486;2023-09-07T10:03:44;29.60;95.00
53880;DHT22;39791;53.184;5.486;2023-09-07T10:06:31;29.40;95.30
53880;DHT22;39791;53.184;5.486;2023-09-07T10:09:03;29.30;96.60
53880;DHT22;39791;53.184;5.486;2023-09-07T10:11:35;29.30;99.90
53880;DHT22;39791;53.184;5.486;2023-09-07T10:14:03;29.40;99.90
53880;DHT22;39791;53.184;5.486;2023-09-07T10:16:43;29.50;99.90
53880;DHT22;39791;53.184;5.486;2023-09-07T10:19:17;29.50;99.90
53880;DHT22;39791;53.184;5.486;2023-09-07T10:21:42;29.40;99.90
53880;DHT22;39791;53.184;5.486;2023-09-07T10:24:09;29.40;95.80
53880;DHT22;39791;53.184;5.486;2023-09-07T10:26:35;29.30;88.50
53880;DHT22;39791;53.184;5.486;2023-09-07T10:29:02;29.20;91.40
53880;DHT22;39791;53.184;5.486;2023-09-07T10:31:29;29.20;87.10
53880;DHT22;39791;53.184;5.486;2023-09-07T10:34:10;29.20;81.00
53880;DHT22;39791;53.184;5.486;2023-09-07T10:36:37;29.30;79.90
53880;DHT22;39791;53.184;5.486;2023-09-07T10:39:03;29.30;92.30
53880;DHT22;39791;53.184;5.486;2023-09-07T10:41:43;29.30;73.50
53880;DHT22;39791;53.184;5.486;2023-09-07T10:44:09;29.30;68.20
53880;DHT22;39791;53.184;5.486;2023-09-07T10:46:39;29.50;67.00
53880;DHT22;39791;53.184;5.486;2023-09-07T10:49:08;29.50;62.00
53880;DHT22;39791;53.184;5.486;2023-09-07T10:51:45;29.60;65.50
53880;DHT22;39791;53.184;5.486;2023-09-07T10:54:18;29.80;65.60
53880;DHT22;39791;53.184;5.486;2023-09-07T10:56:45;30.10;52.60
53880;DHT22;39791;53.184;5.486;2023-09-07T10:59:14;30.30;38.80
53880;DHT22;39791;53.184;5.486;2023-09-07T11:01:39;30.50;21.40
53880;DHT22;39791;53.184;5.486;2023-09-07T11:04:05;30.70;23.60
53880;DHT22;39791;53.184;5.486;2023-09-07T11:06:33;31.10;23.50
53880;DHT22;39791;53.184;5.486;2023-09-07T11:09:00;31.10;16.50
53880;DHT22;39791;53.184;5.486;2023-09-07T11:11:26;31.00;9.80
53880;DHT22;39791;53.184;5.486;2023-09-07T11:13:52;30.60;1.00
53880;DHT22;39791;53.184;5.486;2023-09-07T11:16:18;30.40;1.00
53880;DHT22;39791;53.184;5.486;2023-09-07T11:18:45;30.20;9.50
53880;DHT22;39791;53.184;5.486;2023-09-07T11:21:11;30.10;7.90
53880;DHT22;39791;53.184;5.486;2023-09-07T11:23:37;30.10;1.00
53880;DHT22;39791;53.184;5.486;2023-09-07T11:26:07;30.00;1.90
53880;DHT22;39791;53.184;5.486;2023-09-07T11:28:33;30.00;12.90
53880;DHT22;39791;53.184;5.486;2023-09-07T11:30:59;30.00;2.80
53880;DHT22;39791;53.184;5.486;2023-09-07T11:33:25;29.90;1.00
53880;DHT22;39791;53.184;5.486;2023-09-07T11:35:52;29.80;1.00
53880;DHT22;39791;53.184;5.486;2023-09-07T11:38:20;29.80;1.00
53880;DHT22;39791;53.184;5.486;2023-09-07T11:40:46;29.70;1.00
53880;DHT22;39791;53.184;5.486;2023-09-07T11:43:16;29.70;1.00
53880;DHT22;39791;53.184;5.486;2023-09-07T11:45:42;29.80;9.70
53880;DHT22;39791;53.184;5.486;2023-09-07T11:48:09;29.90;11.20
53880;DHT22;39791;53.184;5.486;2023-09-07T11:50:35;29.90;16.00
53880;DHT22;39791;53.184;5.486;2023-09-07T11:53:00;30.00;16.00
53880;DHT22;39791;53.184;5.486;2023-09-07T11:55:26;29.90;11.00
53880;DHT22;39791;53.184;5.486;2023-09-07T11:57:52;29.80;12.20
53880;DHT22;39791;53.184;5.486;2023-09-07T12:00:18;29.90;8.70
53880;DHT22;39791;53.184;5.486;2023-09-07T12:02:44;29.90;1.00
53880;DHT22;39791;53.184;5.486;2023-09-07T12:05:09;29.90;1.00
53880;DHT22;39791;53.184;5.486;2023-09-07T12:07:38;29.90;5.80
53880;DHT22;39791;53.184;5.486;2023-09-07T12:10:04;29.80;1.00
53880;DHT22;39791;53.184;5.486;2023-09-07T12:12:30;29.90;1.00
53880;DHT22;39791;53.184;5.486;2023-09-07T12:14:55;29.90;2.80
53880;DHT22;39791;53.184;5.486;2023-09-07T12:17:22;29.90;1.00
53880;DHT22;39791;53.184;5.486;2023-09-07T12:19:50;30.00;6.50
53880;DHT22;39791;53.184;5.486;2023-09-07T12:22:15;30.00;6.60
53880;DHT22;39791;53.184;5.486;2023-09-07T12:24:41;30.00;6.50
53880;DHT22;39791;53.184;5.486;2023-09-07T12:27:07;30.00;1.00
53880;DHT22;39791;53.184;5.486;2023-09-07T12:29:32;30.00;1.00
53880;DHT22;39791;53.184;5.486;2023-09-07T12:31:58;30.10;1.00
53880;DHT22;39791;53.184;5.486;2023-09-07T12:34:24;30.10;1.00
53880;DHT22;39791;53.184;5.486;2023-09-07T12:36:50;30.20;1.00
53880;DHT22;39791;53.184;5.486;2023-09-07T12:39:16;30.10;1.00
53880;DHT22;39791;53.184;5.486;2023-09-07T12:41:42;30.20;1.00
53880;DHT22;39791;53.184;5.486;2023-09-07T12:44:08;30.20;1.00
53880;DHT22;39791;53.184;5.486;2023-09-07T12:46:34;30.20;1.00
53880;DHT22;39791;53.184;5.486;2023-09-07T12:49:00;30.20;1.00
53880;DHT22;39791;53.184;5.486;2023-09-07T12:51:26;30.20;1.00
53880;DHT22;39791;53.184;5.486;2023-09-07T12:53:51;30.30;1.00
53880;DHT22;39791;53.184;5.486;2023-09-07T12:56:17;30.30;1.00
53880;DHT22;39791;53.184;5.486;2023-09-07T12:58:44;30.30;1.00
53880;DHT22;39791;53.184;5.486;2023-09-07T13:01:09;30.30;1.00
53880;DHT22;39791;53.184;5.486;2023-09-07T13:03:37;30.30;1.00
53880;DHT22;39791;53.184;5.486;2023-09-07T13:06:03;30.30;1.00
53880;DHT22;39791;53.184;5.486;2023-09-07T13:08:29;30.30;1.00
53880;DHT22;39791;53.184;5.486;2023-09-07T13:10:57;30.40;1.00
53880;DHT22;39791;53.184;5.486;2023-09-07T13:13:23;30.50;1.00
53880;DHT22;39791;53.184;5.486;2023-09-07T13:15:51;30.40;1.00
53880;DHT22;39791;53.184;5.486;2023-09-07T13:18:17;30.40;1.00
53880;DHT22;39791;53.184;5.486;2023-09-07T13:20:42;30.40;1.00
53880;DHT22;39791;53.184;5.486;2023-09-07T13:23:08;30.40;1.00
53880;DHT22;39791;53.184;5.486;2023-09-07T13:25:33;30.40;1.00
53880;DHT22;39791;53.184;5.486;2023-09-07T13:27:59;30.40;1.00
53880;DHT22;39791;53.184;5.486;2023-09-07T13:30:25;30.40;1.00
53880;DHT22;39791;53.184;5.486;2023-09-07T13:32:50;30.40;1.00
53880;DHT22;39791;53.184;5.486;2023-09-07T13:35:16;30.40;1.00
53880;DHT22;39791;53.184;5.486;2023-09-07T13:37:42;30.40;1.00
53880;DHT22;39791;53.184;5.486;2023-09-07T13:40:08;30.40;1.00
53880;DHT22;39791;53.184;5.486;2023-09-07T13:42:34;30.40;1.00
53880;DHT22;39791;53.184;5.486;2023-09-07T13:45:00;30.40;1.00
53880;DHT22;39791;53.184;5.486;2023-09-07T13:47:26;30.40;1.00
53880;DHT22;39791;53.184;5.486;2023-09-07T13:49:51;30.40;1.00
53880;DHT22;39791;53.184;5.486;2023-09-07T13:52:17;30.40;1.00
53880;DHT22;39791;53.184;5.486;2023-09-07T13:54:42;30.40;1.00
53880;DHT22;39791;53.184;5.486;2023-09-07T13:57:08;30.40;1.00
53880;DHT22;39791;53.184;5.486;2023-09-07T13:59:34;30.40;1.00
53880;DHT22;39791;53.184;5.486;2023-09-07T14:02:00;30.40;1.00
53880;DHT22;39791;53.184;5.486;2023-09-07T14:04:26;30.40;1.00
53880;DHT22;39791;53.184;5.486;2023-09-07T14:06:52;30.40;1.00
53880;DHT22;39791;53.184;5.486;2023-09-07T14:09:18;30.40;1.00
53880;DHT22;39791;53.184;5.486;2023-09-07T14:11:44;30.50;1.00
53880;DHT22;39791;53.184;5.486;2023-09-07T14:14:10;30.50;1.00
53880;DHT22;39791;53.184;5.486;2023-09-07T14:16:36;30.50;1.00
53880;DHT22;39791;53.184;5.486;2023-09-07T14:19:01;30.40;1.00
53880;DHT22;39791;53.184;5.486;2023-09-07T14:21:27;30.40;1.00
53880;DHT22;39791;53.184;5.486;2023-09-07T14:23:52;30.40;1.00
53880;DHT22;39791;53.184;5.486;2023-09-07T14:26:18;30.40;1.00
53880;DHT22;39791;53.184;5.486;2023-09-07T14:28:43;30.30;1.00
53880;DHT22;39791;53.184;5.486;2023-09-07T14:31:09;30.20;1.00
53880;DHT22;39791;53.184;5.486;2023-09-07T14:33:35;30.30;1.00
53880;DHT22;39791;53.184;5.486;2023-09-07T14:36:05;30.40;1.00
53880;DHT22;39791;53.184;5.486;2023-09-07T14:38:31;30.40;1.00
53880;DHT22;39791;53.184;5.486;2023-09-07T14:41:00;30.40;1.00
53880;DHT22;39791;53.184;5.486;2023-09-07T14:43:26;30.50;1.00
53880;DHT22;39791;53.184;5.486;2023-09-07T14:45:51;30.50;1.00
53880;DHT22;39791;53.184;5.486;2023-09-07T14:48:17;30.50;1.00
53880;DHT22;39791;53.184;5.486;2023-09-07T14:50:43;30.50;1.00
53880;DHT22;39791;53.184;5.486;2023-09-07T14:53:08;30.40;1.00
53880;DHT22;39791;53.184;5.486;2023-09-07T14:55:34;30.40;1.00
53880;DHT22;39791;53.184;5.486;2023-09-07T14:57:59;30.40;1.00
53880;DHT22;39791;53.184;5.486;2023-09-07T15:00:25;30.40;1.00
53880;DHT22;39791;53.184;5.486;2023-09-07T15:02:53;30.40;1.00
53880;DHT22;39791;53.184;5.486;2023-09-07T15:05:18;30.40;1.00
53880;DHT22;39791;53.184;5.486;2023-09-07T15:07:44;30.30;1.00
53880;DHT22;39791;53.184;5.486;2023-09-07T15:10:09;30.30;1.00
53880;DHT22;39791;53.184;5.486;2023-09-07T15:12:35;30.20;1.00
53880;DHT22;39791;53.184;5.486;2023-09-07T15:15:01;30.10;1.00
53880;DHT22;39791;53.184;5.486;2023-09-07T15:17:27;30.10;1.00
53880;DHT22;39791;53.184;5.486;2023-09-07T15:19:52;30.10;1.00
53880;DHT22;39791;53.184;5.486;2023-09-07T15:22:18;30.10;1.00
53880;DHT22;39791;53.184;5.486;2023-09-07T15:24:44;30.10;1.00
53880;DHT22;39791;53.184;5.486;2023-09-07T15:27:10;30.10;1.00
53880;DHT22;39791;53.184;5.486;2023-09-07T15:29:37;30.00;1.00
53880;DHT22;39791;53.184;5.486;2023-09-07T15:32:03;30.00;1.00